createdAt,value
2023-04-05T00:00:30.826Z,49.05
2023-04-05T00:01:53.633Z,49.16
2023-04-05T00:03:18.044Z,49.16
2023-04-05T00:04:54.985Z,49.41
2023-04-05T00:06:22.156Z,49.21
2023-04-05T00:07:48.446Z,49.49
2023-04-05T00:09:09.720Z,49.51
2023-04-05T00:10:36.390Z,49.68
2023-04-05T00:12:00.245Z,49.43
2023-04-05T00:13:22.160Z,49.60
2023-04-05T00:14:47.441Z,49.54
2023-04-05T00:16:09.387Z,49.68
2023-04-05T00:17:31.694Z,49.33
2023-04-05T00:18:53.123Z,49.14
2023-04-05T00:20:37.648Z,49.41
2023-04-05T00:21:58.699Z,49.37
2023-04-05T00:23:26.675Z,49.42
2023-04-05T00:24:48.894Z,49.50
2023-04-05T00:26:12.346Z,49.75
2023-04-05T00:27:45.940Z,49.34
2023-04-05T00:29:08.056Z,49.44
2023-04-05T00:30:29.259Z,49.59
2023-04-05T00:31:51.433Z,49.64
2023-04-05T00:33:12.983Z,49.48
2023-04-05T00:34:35.039Z,49.51
2023-04-05T00:36:09.434Z,49.80
2023-04-05T00:37:31.987Z,49.81
2023-04-05T00:38:53.389Z,49.86
2023-04-05T00:40:15.764Z,50.13
2023-04-05T00:41:47.557Z,49.96
2023-04-05T00:43:10.120Z,49.96
2023-04-05T00:44:34.817Z,50.26
2023-04-05T00:45:57.900Z,50.38
2023-04-05T00:47:20.005Z,50.25
2023-04-05T00:48:42.902Z,50.28
2023-04-05T00:50:07.443Z,50.33
2023-04-05T00:51:31.986Z,50.43
2023-04-05T00:52:59.176Z,50.71
2023-04-05T00:54:24.577Z,50.56
2023-04-05T00:55:48.032Z,50.63
2023-04-05T00:57:11.797Z,50.45
2023-04-05T00:58:34.041Z,50.68
2023-04-05T00:59:56.859Z,50.54
2023-04-05T01:01:22.584Z,50.83
2023-04-05T01:02:49.897Z,50.81
2023-04-05T01:04:14.450Z,50.51
2023-04-05T01:05:44.636Z,50.73
2023-04-05T01:07:10.957Z,50.57
2023-04-05T01:08:45.978Z,50.86
2023-04-05T01:10:11.872Z,51.10
2023-04-05T01:11:34.373Z,50.94
2023-04-05T01:13:01.139Z,51.17
2023-04-05T01:14:26.129Z,51.18
2023-04-05T01:15:52.928Z,50.92
2023-04-05T01:17:14.056Z,51.06
2023-04-05T01:18:36.609Z,51.14
2023-04-05T01:20:00.745Z,51.54
2023-04-05T01:21:58.392Z,51.48
2023-04-05T01:23:40.558Z,51.64
2023-04-05T01:25:28.610Z,51.18
2023-04-05T01:27:08.440Z,51.47
2023-04-05T01:29:01.180Z,51.22
2023-04-05T01:30:28.119Z,51.29
2023-04-05T01:31:54.626Z,51.42
2023-04-05T01:33:23.901Z,51.33
2023-04-05T01:34:52.727Z,51.35
2023-04-05T01:36:23.362Z,51.49
2023-04-05T01:37:49.104Z,51.37
2023-04-05T01:39:14.723Z,51.56
2023-04-05T01:40:39.891Z,51.70
2023-04-05T01:42:05.752Z,51.58
2023-04-05T01:43:28.912Z,51.55
2023-04-05T01:44:50.822Z,51.40
2023-04-05T01:46:14.675Z,51.76
2023-04-05T01:47:35.872Z,51.81
2023-04-05T01:49:00.850Z,51.81
2023-04-05T01:50:22.552Z,51.85
2023-04-05T01:51:47.502Z,51.60
2023-04-05T01:53:10.758Z,51.77
2023-04-05T01:54:34.703Z,51.97
2023-04-05T01:56:04.603Z,51.91
2023-04-05T01:57:39.854Z,51.82
2023-04-05T01:59:02.747Z,51.85
2023-04-05T02:00:26.101Z,51.81
2023-04-05T02:01:49.753Z,51.90
2023-04-05T02:03:13.801Z,51.91
2023-04-05T02:04:36.512Z,52.03
2023-04-05T02:06:02.233Z,52.18
2023-04-05T02:07:24.691Z,52.15
2023-04-05T02:08:46.958Z,52.07
2023-04-05T02:10:10.449Z,52.04
2023-04-05T02:11:36.509Z,52.02
2023-04-05T02:12:58.617Z,52.14
2023-04-05T02:14:20.354Z,52.50
2023-04-05T02:15:42.859Z,52.34
2023-04-05T02:17:06.036Z,52.19
2023-04-05T02:18:31.726Z,52.43
2023-04-05T02:19:54.422Z,52.39
2023-04-05T02:21:17.518Z,52.65
2023-04-05T02:22:40.204Z,52.38
2023-04-05T02:24:05.915Z,52.34
2023-04-05T02:25:28.205Z,52.54
2023-04-05T02:26:49.267Z,52.79
2023-04-05T02:28:12.674Z,52.49
2023-04-05T02:29:37.815Z,52.40
2023-04-05T02:31:02.030Z,52.33
2023-04-05T02:32:26.056Z,52.59
2023-04-05T02:33:49.169Z,52.67
2023-04-05T02:35:11.600Z,52.69
2023-04-05T02:36:34.505Z,52.76
2023-04-05T02:38:02.106Z,52.91
2023-04-05T02:39:23.117Z,52.87
2023-04-05T02:40:48.502Z,52.89
2023-04-05T02:42:11.152Z,52.83
2023-04-05T02:43:34.228Z,52.81
2023-04-05T02:44:59.602Z,52.72
2023-04-05T02:46:22.764Z,52.80
2023-04-05T02:48:00.297Z,53.11
2023-04-05T02:49:26.122Z,52.92
2023-04-05T02:50:52.718Z,53.02
2023-04-05T02:52:13.849Z,52.81
2023-04-05T02:53:38.728Z,52.90
2023-04-05T02:55:03.043Z,53.05
2023-04-05T02:56:26.791Z,53.32
2023-04-05T02:57:48.359Z,52.97
2023-04-05T02:59:26.788Z,53.11
2023-04-05T03:00:51.517Z,53.30
2023-04-05T03:02:18.580Z,52.99
2023-04-05T03:03:40.963Z,53.22
2023-04-05T03:05:09.232Z,53.25
2023-04-05T03:06:32.580Z,53.19
2023-04-05T03:07:59.655Z,53.19
2023-04-05T03:09:24.781Z,53.25
2023-04-05T03:10:53.053Z,53.32
2023-04-05T03:12:15.819Z,53.49
2023-04-05T03:13:41.253Z,53.39
2023-04-05T03:15:10.921Z,53.37
2023-04-05T03:16:38.767Z,53.48
2023-04-05T03:18:08.301Z,53.40
2023-04-05T03:19:32.238Z,53.44
2023-04-05T03:21:05.135Z,53.51
2023-04-05T03:22:33.758Z,53.47
2023-04-05T03:23:57.651Z,53.57
2023-04-05T03:25:25.753Z,53.51
2023-04-05T03:26:51.172Z,53.67
2023-04-05T03:28:18.511Z,53.72
2023-04-05T03:29:44.909Z,53.58
2023-04-05T03:31:11.165Z,53.78
2023-04-05T03:32:34.159Z,53.74
2023-04-05T03:34:05.566Z,53.69
2023-04-05T03:35:36.992Z,53.75
2023-04-05T03:37:02.715Z,53.72
2023-04-05T03:38:42.490Z,53.74
2023-04-05T03:40:18.060Z,53.76
2023-04-05T03:41:40.493Z,53.57
2023-04-05T03:43:03.076Z,53.84
2023-04-05T03:44:28.614Z,53.81
2023-04-05T03:45:50.774Z,53.74
2023-04-05T03:47:13.348Z,53.68
2023-04-05T03:48:37.200Z,53.88
2023-04-05T03:49:58.191Z,53.96
2023-04-05T03:51:22.210Z,53.71
2023-04-05T03:52:45.071Z,53.35
2023-04-05T03:54:07.660Z,53.66
2023-04-05T03:55:30.588Z,53.51
2023-04-05T03:56:59.644Z,53.36
2023-04-05T03:58:22.436Z,53.46
2023-04-05T03:59:49.222Z,53.64
2023-04-05T04:01:12.302Z,53.66
2023-04-05T04:02:39.764Z,53.54
2023-04-05T04:04:07.825Z,53.79
2023-04-05T04:05:29.173Z,53.59
2023-04-05T04:07:09.234Z,53.69
2023-04-05T04:08:31.347Z,53.55
2023-04-05T04:09:56.639Z,53.70
2023-04-05T04:11:23.890Z,53.63
2023-04-05T04:12:59.652Z,53.94
2023-04-05T04:14:24.677Z,53.75
2023-04-05T04:16:05.808Z,53.95
2023-04-05T04:17:47.086Z,53.94
2023-04-05T04:19:27.088Z,53.86
2023-04-05T04:21:19.136Z,53.98
2023-04-05T04:22:56.899Z,53.89
2023-04-05T04:24:40.657Z,54.27
2023-04-05T04:26:29.805Z,54.13
2023-04-05T04:28:19.750Z,54.09
2023-04-05T04:30:11.837Z,54.18
2023-04-05T04:31:55.926Z,54.17
2023-04-05T04:33:43.718Z,54.38
2023-04-05T04:35:20.959Z,54.26
2023-04-05T04:37:18.786Z,54.30
2023-04-05T04:39:07.264Z,54.77
2023-04-05T04:41:03.403Z,54.56
2023-04-05T04:42:38.819Z,54.33
2023-04-05T04:44:06.634Z,54.54
2023-04-05T04:45:35.087Z,54.77
2023-04-05T04:47:18.012Z,54.55
2023-04-05T04:49:06.021Z,54.67
2023-04-05T04:50:28.919Z,54.79
2023-04-05T04:51:50.433Z,54.90
2023-04-05T04:53:27.799Z,54.88
2023-04-05T04:54:52.503Z,54.75
2023-04-05T04:56:14.921Z,54.74
2023-04-05T04:57:47.893Z,54.62
2023-04-05T04:59:10.032Z,54.60
2023-04-05T05:00:31.802Z,54.68
2023-04-05T05:01:54.280Z,54.61
2023-04-05T05:03:17.480Z,54.68
2023-04-05T05:04:41.649Z,54.76
2023-04-05T05:06:03.809Z,54.76
2023-04-05T05:07:34.675Z,54.82
2023-04-05T05:09:03.898Z,54.68
2023-04-05T05:11:04.663Z,54.55
2023-04-05T05:12:38.140Z,54.75
2023-04-05T05:14:02.722Z,54.69
2023-04-05T05:15:25.126Z,54.81
2023-04-05T05:16:47.661Z,54.80
2023-04-05T05:18:09.199Z,54.85
2023-04-05T05:19:36.457Z,54.89
2023-04-05T05:21:00.723Z,54.75
2023-04-05T05:22:26.006Z,55.04
2023-04-05T05:24:14.015Z,54.89
2023-04-05T05:25:40.235Z,54.63
2023-04-05T05:27:02.884Z,54.66
2023-04-05T05:28:26.829Z,54.69
2023-04-05T05:29:47.948Z,54.57
2023-04-05T05:31:14.480Z,54.72
2023-04-05T05:32:54.080Z,55.04
2023-04-05T05:34:22.698Z,54.71
2023-04-05T05:35:51.725Z,54.50
2023-04-05T05:37:14.967Z,54.67
2023-04-05T05:38:39.425Z,54.47
2023-04-05T05:40:10.331Z,54.70
2023-04-05T05:41:34.436Z,54.42
2023-04-05T05:42:59.423Z,54.70
2023-04-05T05:44:26.713Z,54.64
2023-04-05T05:45:50.701Z,54.63
2023-04-05T05:47:12.854Z,54.17
2023-04-05T05:48:35.134Z,54.20
2023-04-05T05:49:58.891Z,54.17
2023-04-05T05:51:53.410Z,54.14
2023-04-05T05:53:16.170Z,54.20
2023-04-05T05:54:40.359Z,53.96
2023-04-05T05:56:02.499Z,53.75
2023-04-05T05:57:27.507Z,53.70
2023-04-05T05:58:51.442Z,53.24
2023-04-05T06:00:26.026Z,52.99
2023-04-05T06:01:51.842Z,52.68
2023-04-05T06:03:18.834Z,52.50
2023-04-05T06:04:41.140Z,52.27
2023-04-05T06:06:08.655Z,51.93
2023-04-05T06:07:30.583Z,51.62
2023-04-05T06:08:52.786Z,51.37
2023-04-05T06:10:15.661Z,51.09
2023-04-05T06:11:46.296Z,50.67
2023-04-05T06:13:17.287Z,50.36
2023-04-05T06:14:44.185Z,50.17
2023-04-05T06:16:59.405Z,49.66
2023-04-05T06:19:02.478Z,49.55
2023-04-05T06:20:25.279Z,48.91
2023-04-05T06:21:48.131Z,48.62
2023-04-05T06:23:30.861Z,48.18
2023-04-05T06:25:07.102Z,48.05
2023-04-05T06:26:30.333Z,47.74
2023-04-05T06:28:00.004Z,47.52
2023-04-05T06:29:24.221Z,47.40
2023-04-05T06:30:52.904Z,46.98
2023-04-05T06:32:22.729Z,46.56
2023-04-05T06:34:18.950Z,45.98
2023-04-05T06:35:57.432Z,45.52
2023-04-05T06:40:57.127Z,44.25
2023-04-05T06:43:20.397Z,43.92
2023-04-05T06:44:53.891Z,43.67
2023-04-05T06:46:24.224Z,43.38
2023-04-05T06:55:36.867Z,42.59
2023-04-05T06:57:09.597Z,42.50
2023-04-05T06:58:45.261Z,42.05
2023-04-05T07:00:22.056Z,42.10
2023-04-05T07:01:48.070Z,41.95
2023-04-05T07:03:17.764Z,41.27
2023-04-05T07:05:01.884Z,41.23
2023-04-05T07:06:27.111Z,41.27
2023-04-05T07:07:53.335Z,40.59
2023-04-05T07:09:33.703Z,40.14
2023-04-05T07:11:00.831Z,39.63
2023-04-05T07:12:30.726Z,39.53
2023-04-05T07:13:55.450Z,39.40
2023-04-05T07:15:19.725Z,39.34
2023-04-05T07:18:25.063Z,39.45
2023-04-05T07:19:47.841Z,39.57
2023-04-05T07:21:09.456Z,39.90
2023-04-05T07:22:31.376Z,39.78
2023-04-05T07:23:56.146Z,39.00
2023-04-05T07:25:20.203Z,38.91
2023-04-05T07:26:42.390Z,38.88
2023-04-05T07:28:07.902Z,38.92
2023-04-05T07:29:30.030Z,38.63
2023-04-05T07:30:57.129Z,38.40
2023-04-05T07:32:31.699Z,38.35
2023-04-05T07:34:02.406Z,38.21
2023-04-05T07:35:25.028Z,38.53
2023-04-05T07:36:53.415Z,38.35
2023-04-05T07:38:17.431Z,38.31
2023-04-05T07:39:40.040Z,38.03
2023-04-05T07:42:49.513Z,38.02
2023-04-05T07:44:22.027Z,37.79
2023-04-05T07:45:46.137Z,37.58
2023-04-05T07:47:10.101Z,37.61
2023-04-05T07:48:32.916Z,37.74
2023-04-05T07:49:57.366Z,37.30
2023-04-05T07:51:21.978Z,37.24
2023-04-05T07:52:44.615Z,37.15
2023-04-05T07:54:07.495Z,37.39
2023-04-05T07:55:43.651Z,37.27
2023-04-05T07:57:07.256Z,37.72
2023-04-05T07:58:33.120Z,37.49
2023-04-05T07:59:58.709Z,37.82
2023-04-05T08:01:23.294Z,38.04
2023-04-05T08:03:00.619Z,38.25
2023-04-05T08:04:26.372Z,38.64
2023-04-05T08:05:48.584Z,38.89
2023-04-05T08:07:10.955Z,39.27
2023-04-05T08:08:34.605Z,39.46
2023-04-05T08:10:00.367Z,39.75
2023-04-05T08:11:26.328Z,39.82
2023-04-05T08:12:48.571Z,40.59
2023-04-05T08:14:11.107Z,40.64
2023-04-05T08:15:34.734Z,40.95
2023-04-05T08:17:00.310Z,40.89
2023-04-05T08:18:23.927Z,41.13
2023-04-05T08:19:46.282Z,41.27
2023-04-05T08:21:11.936Z,41.18
2023-04-05T08:22:34.370Z,41.13
2023-04-05T08:23:56.630Z,41.17
2023-04-05T08:25:18.969Z,41.28
2023-04-05T08:26:42.180Z,41.04
2023-04-05T08:28:04.507Z,40.65
2023-04-05T08:29:26.928Z,40.11
2023-04-05T08:30:52.261Z,39.62
2023-04-05T08:32:17.609Z,38.73
2023-04-05T08:33:41.280Z,38.38
2023-04-05T08:35:05.876Z,37.92
2023-04-05T08:36:28.033Z,37.00
2023-04-05T08:37:57.668Z,36.15
2023-04-05T08:39:31.623Z,35.13
2023-04-05T08:40:55.695Z,34.24
2023-04-05T08:42:20.174Z,30.25
2023-04-05T08:43:52.282Z,28.52
2023-04-05T08:45:19.251Z,27.32
2023-04-05T08:46:45.681Z,24.41
2023-04-05T08:48:08.190Z,21.73
2023-04-05T08:49:31.911Z,20.68
2023-04-05T08:51:06.571Z,18.98
2023-04-05T08:52:45.635Z,17.14
2023-04-05T08:54:08.238Z,15.83
2023-04-05T08:55:30.288Z,15.20
2023-04-05T08:57:09.959Z,13.78
2023-04-05T08:58:34.347Z,13.15
2023-04-05T08:59:57.723Z,12.17
2023-04-05T09:01:20.411Z,12.26
2023-04-05T09:02:46.372Z,11.71
2023-04-05T09:04:13.323Z,11.94
2023-04-05T09:05:44.342Z,11.69
2023-04-05T09:07:15.759Z,11.36
2023-04-05T09:08:39.645Z,11.51
2023-04-05T09:10:11.836Z,12.62
2023-04-05T09:11:35.149Z,13.16
2023-04-05T09:12:57.565Z,13.05
2023-04-05T09:14:24.782Z,13.34
2023-04-05T09:15:50.904Z,13.83
2023-04-05T09:17:13.609Z,14.46
2023-04-05T09:18:35.961Z,14.96
2023-04-05T09:20:00.388Z,15.04
2023-04-05T09:21:28.398Z,15.54
2023-04-05T09:22:50.729Z,15.98
2023-04-05T09:24:17.952Z,16.59
2023-04-05T09:25:57.377Z,17.86
2023-04-05T09:27:47.904Z,18.32
2023-04-05T09:29:10.225Z,18.80
2023-04-05T09:30:57.848Z,19.63
2023-04-05T09:32:21.508Z,20.21
2023-04-05T09:33:47.755Z,20.50
2023-04-05T09:35:20.226Z,21.19
2023-04-05T09:36:46.669Z,21.53
2023-04-05T09:38:09.124Z,22.11
2023-04-05T09:39:33.994Z,22.52
2023-04-05T09:40:56.193Z,22.77
2023-04-05T09:42:27.050Z,23.34
2023-04-05T09:43:49.249Z,23.47
2023-04-05T09:45:11.477Z,23.67
2023-04-05T09:47:22.476Z,24.03
2023-04-05T09:48:49.137Z,24.39
2023-04-05T09:50:22.881Z,24.67
2023-04-05T09:53:26.200Z,25.10
2023-04-05T09:54:48.250Z,25.29
2023-04-05T09:56:17.557Z,25.48
2023-04-05T09:57:45.513Z,25.46
2023-04-05T09:59:13.803Z,26.33
2023-04-05T10:01:13.412Z,26.79
2023-04-05T10:02:38.743Z,27.31
2023-04-05T10:04:06.398Z,27.80
2023-04-05T10:05:39.115Z,27.70
2023-04-05T10:07:03.610Z,27.97
2023-04-05T10:08:29.293Z,28.20
2023-04-05T10:10:04.541Z,28.56
2023-04-05T10:11:30.636Z,28.55
2023-04-05T10:12:54.102Z,28.68
2023-04-05T10:14:16.368Z,28.60
2023-04-05T10:15:38.912Z,28.55
2023-04-05T10:17:10.613Z,28.58
2023-04-05T10:18:44.460Z,28.69
2023-04-05T10:20:16.398Z,28.71
2023-04-05T10:21:45.195Z,28.94
2023-04-05T10:23:13.755Z,29.25
2023-04-05T10:24:41.768Z,29.36
2023-04-05T10:26:12.858Z,29.82
2023-04-05T10:27:49.360Z,29.82
2023-04-05T10:29:31.241Z,30.05
2023-04-05T10:31:00.646Z,30.13
2023-04-05T10:32:31.629Z,29.91
2023-04-05T10:34:04.274Z,29.95
2023-04-05T10:35:36.333Z,30.24
2023-04-05T10:37:02.906Z,30.10
2023-04-05T10:38:43.316Z,29.76
2023-04-05T10:40:11.722Z,29.56
2023-04-05T10:41:38.187Z,30.08
2023-04-05T10:43:01.262Z,30.12
2023-04-05T10:44:26.669Z,30.32
2023-04-05T10:46:28.064Z,29.50
2023-04-05T10:47:59.468Z,29.49
2023-04-05T10:49:48.840Z,29.18
2023-04-05T10:51:49.985Z,28.90
2023-04-05T10:54:04.547Z,28.11
2023-04-05T11:02:05.604Z,28.27
2023-04-05T11:04:34.086Z,28.16
2023-04-05T11:06:52.452Z,28.75
2023-04-05T11:08:19.055Z,28.93
2023-04-05T11:11:01.578Z,28.88
2023-04-05T11:13:03.150Z,29.01
2023-04-05T11:14:39.989Z,29.71
2023-04-05T11:16:34.142Z,29.64
2023-04-05T11:18:03.998Z,29.87
2023-04-05T11:20:11.083Z,29.92
2023-04-05T11:22:11.336Z,29.53
2023-04-05T11:24:17.378Z,29.47
2023-04-05T11:25:47.765Z,29.29
2023-04-05T11:27:13.394Z,29.30
2023-04-05T11:28:41.557Z,29.40
2023-04-05T11:31:08.792Z,29.82
2023-04-05T11:33:19.727Z,29.86
2023-04-05T11:35:11.700Z,29.94
2023-04-05T11:37:48.454Z,30.24
2023-04-05T11:39:59.975Z,30.75
2023-04-05T11:42:00.355Z,31.09
2023-04-05T11:43:30.383Z,31.73
2023-04-05T11:45:09.728Z,32.38
2023-04-05T11:46:34.329Z,32.73
2023-04-05T11:48:01.150Z,32.87
2023-04-05T11:51:18.889Z,33.44
2023-04-05T11:52:41.585Z,33.56
2023-04-05T11:54:04.162Z,34.42
2023-04-05T11:56:05.953Z,34.78
2023-04-05T11:57:41.555Z,34.62
2023-04-05T12:00:01.099Z,35.08
2023-04-05T12:10:44.957Z,35.09
2023-04-05T12:12:18.384Z,34.86
2023-04-05T12:14:02.189Z,34.84
2023-04-05T12:15:41.380Z,34.26
2023-04-05T12:17:03.903Z,34.07
2023-04-05T12:18:31.562Z,34.08
2023-04-05T12:19:57.575Z,33.97
2023-04-05T12:21:24.116Z,33.92
2023-04-05T12:22:48.476Z,33.96
2023-04-05T12:24:13.830Z,34.52
2023-04-05T12:25:39.031Z,34.47
2023-04-05T12:27:05.524Z,34.81
2023-04-05T12:28:27.625Z,34.87
2023-04-05T12:30:18.064Z,35.17
2023-04-05T12:31:55.039Z,35.53
2023-04-05T12:33:52.273Z,35.55
2023-04-05T12:35:19.036Z,36.04
2023-04-05T12:36:57.229Z,36.17
2023-04-05T12:38:23.076Z,36.40
2023-04-05T12:40:05.699Z,36.80
2023-04-05T12:44:37.772Z,36.93
2023-04-05T12:46:13.900Z,36.88
2023-04-05T12:47:44.821Z,36.99
2023-04-05T12:49:09.371Z,36.77
2023-04-05T12:50:34.053Z,37.22
2023-04-05T12:52:06.915Z,37.71
2023-04-05T12:53:32.618Z,37.51
2023-04-05T12:55:25.857Z,37.64
2023-04-05T12:58:41.348Z,37.89
2023-04-05T13:00:14.386Z,37.68
2023-04-05T13:01:42.307Z,37.56
2023-04-05T13:03:21.377Z,37.74
2023-04-05T13:04:47.251Z,37.89
2023-04-05T13:06:41.543Z,38.24
2023-04-05T13:08:04.536Z,38.18
2023-04-05T13:09:28.801Z,38.01
2023-04-05T13:10:58.038Z,37.98
2023-04-05T13:12:28.800Z,38.06
2023-04-05T13:13:52.080Z,37.78
2023-04-05T13:15:19.434Z,37.66
2023-04-05T13:16:43.269Z,37.94
2023-04-05T13:18:38.455Z,38.28
2023-04-05T13:20:10.592Z,38.18
2023-04-05T13:24:00.899Z,38.68
2023-04-05T13:25:24.869Z,38.90
2023-04-05T13:26:58.048Z,39.45
2023-04-05T13:31:08.445Z,40.46
2023-04-05T13:33:10.367Z,41.07
2023-04-05T13:34:40.747Z,41.36
2023-04-05T13:36:18.200Z,42.22
2023-04-05T13:40:48.164Z,42.66
2023-04-05T13:42:41.630Z,42.75
2023-04-05T13:44:33.478Z,43.35
2023-04-05T13:45:59.525Z,43.10
2023-04-05T13:47:42.491Z,43.75
2023-04-05T13:49:11.893Z,43.52
2023-04-05T13:50:47.798Z,43.81
2023-04-05T13:52:10.580Z,44.16
2023-04-05T13:53:32.742Z,44.24
2023-04-05T13:55:03.360Z,44.59
2023-04-05T13:56:32.234Z,44.74
2023-04-05T13:57:55.013Z,44.90
2023-04-05T13:59:17.361Z,45.02
2023-04-05T14:00:42.346Z,44.83
2023-04-05T14:02:04.779Z,44.64
2023-04-05T14:03:30.889Z,44.76
2023-04-05T14:04:59.742Z,44.89
2023-04-05T14:06:23.718Z,44.97
2023-04-05T14:07:48.328Z,44.95
2023-04-05T14:09:13.748Z,44.69
2023-04-05T14:10:36.443Z,44.55
2023-04-05T14:12:20.491Z,44.46
2023-04-05T14:13:45.042Z,44.25
2023-04-05T14:15:13.562Z,44.18
2023-04-05T14:16:39.650Z,43.94
2023-04-05T14:18:04.232Z,43.96
2023-04-05T14:19:28.085Z,43.49
2023-04-05T14:20:52.260Z,43.90
2023-04-05T14:22:14.528Z,43.97
2023-04-05T14:23:48.894Z,44.33
2023-04-05T14:25:17.580Z,44.51
2023-04-05T14:26:42.022Z,44.39
2023-04-05T14:28:04.544Z,44.56
2023-04-05T14:29:27.202Z,44.65
2023-04-05T14:30:51.813Z,44.85
2023-04-05T14:32:30.278Z,44.71
2023-04-05T14:33:53.969Z,44.68
2023-04-05T14:35:17.696Z,44.87
2023-04-05T14:37:20.313Z,44.92
2023-04-05T14:38:42.816Z,44.89
2023-04-05T14:40:06.419Z,45.15
2023-04-05T14:41:35.237Z,45.30
2023-04-05T14:43:03.955Z,45.49
2023-04-05T14:45:32.351Z,45.22
2023-04-05T14:46:46.267Z,45.16
2023-04-05T14:48:11.497Z,45.29
2023-04-05T14:49:34.526Z,45.25
2023-04-05T14:50:57.801Z,45.40
2023-04-05T14:53:27.019Z,45.59
2023-04-05T14:54:30.479Z,45.56
2023-04-05T14:55:53.838Z,45.59
2023-04-05T14:57:17.993Z,45.79
2023-04-05T14:58:53.796Z,46.14
2023-04-05T15:00:29.203Z,46.24
2023-04-05T15:02:21.679Z,46.48
2023-04-05T15:03:58.052Z,46.37
2023-04-05T15:05:34.590Z,46.40
2023-04-05T15:08:01.232Z,46.55
2023-04-05T15:09:27.392Z,46.43
2023-04-05T15:12:04.602Z,46.36
2023-04-05T15:13:32.621Z,46.46
2023-04-05T15:15:04.683Z,46.74
2023-04-05T15:16:27.568Z,46.77
2023-04-05T15:17:49.909Z,46.93
2023-04-05T15:19:12.520Z,47.06
2023-04-05T15:22:23.643Z,47.52
2023-04-05T15:23:54.681Z,47.51
2023-04-05T15:25:18.809Z,47.48
2023-04-05T15:26:50.300Z,47.91
2023-04-05T15:28:15.653Z,47.71
2023-04-05T15:29:38.439Z,47.51
2023-04-05T15:31:03.766Z,47.79
2023-04-05T15:32:25.164Z,47.81
2023-04-05T15:33:47.657Z,47.63
2023-04-05T15:35:09.444Z,47.61
2023-04-05T15:36:41.602Z,47.46
2023-04-05T15:38:12.330Z,47.31
2023-04-05T15:40:14.270Z,47.40
2023-04-05T15:41:44.702Z,47.25
2023-04-05T15:43:07.284Z,47.62
2023-04-05T15:44:29.884Z,47.64
2023-04-05T15:45:58.411Z,47.56
2023-04-05T15:47:25.420Z,47.74
2023-04-05T15:48:47.892Z,47.68
2023-04-05T15:51:42.385Z,47.94
2023-04-05T15:53:04.769Z,47.82
2023-04-05T15:54:38.848Z,47.98
2023-04-05T15:56:04.254Z,47.61
2023-04-05T15:57:33.949Z,47.74
2023-04-05T15:59:00.314Z,47.70
2023-04-05T16:03:59.848Z,47.78
2023-04-05T16:05:46.980Z,47.76
2023-04-05T16:07:15.865Z,47.90
2023-04-05T16:08:38.522Z,47.98
2023-04-05T16:10:00.698Z,47.81
2023-04-05T16:11:22.313Z,47.84
2023-04-05T16:12:46.446Z,47.78
2023-04-05T16:14:11.334Z,47.77
2023-04-05T16:15:38.912Z,48.04
2023-04-05T16:17:03.961Z,47.82
2023-04-05T16:18:28.298Z,47.77
2023-04-05T16:20:20.539Z,47.70
2023-04-05T16:21:43.277Z,47.75
2023-04-05T16:23:05.760Z,47.85
2023-04-05T16:24:49.832Z,47.92
2023-04-05T16:26:18.125Z,48.16
2023-04-05T16:27:44.688Z,47.99
2023-04-05T16:29:09.913Z,48.38
2023-04-05T16:30:34.517Z,48.50
2023-04-05T16:32:00.271Z,48.27
2023-04-05T16:33:47.795Z,48.79
2023-04-05T16:35:13.432Z,48.65
2023-04-05T16:36:35.106Z,48.39
2023-04-05T16:38:00.714Z,48.56
2023-04-05T16:39:23.056Z,48.63
2023-04-05T16:40:46.882Z,48.63
2023-04-05T16:42:09.307Z,48.62
2023-04-05T16:43:37.400Z,48.84
2023-04-05T16:45:08.056Z,48.75
2023-04-05T16:46:32.565Z,48.83
2023-04-05T16:47:59.372Z,48.93
2023-04-05T16:49:23.946Z,48.87
2023-04-05T16:50:46.571Z,49.01
2023-04-05T16:52:10.226Z,48.91
2023-04-05T16:53:33.783Z,49.17
2023-04-05T16:54:56.866Z,49.27
2023-04-05T16:56:21.240Z,49.52
2023-04-05T16:57:58.564Z,49.79
2023-04-05T16:59:22.349Z,49.58
2023-04-05T17:01:00.537Z,49.77
2023-04-05T17:02:51.862Z,49.85
2023-04-05T17:07:04.519Z,50.05
2023-04-05T17:08:32.832Z,50.27
2023-04-05T17:10:48.417Z,50.53
2023-04-05T17:16:19.365Z,50.16
2023-04-05T17:17:51.990Z,50.48
2023-04-05T17:19:14.043Z,50.38
2023-04-05T17:20:36.191Z,50.33
2023-04-05T17:22:06.960Z,50.64
2023-04-05T17:23:29.576Z,50.70
2023-04-05T17:25:04.548Z,50.75
2023-04-05T17:26:29.960Z,50.81
2023-04-05T17:27:53.688Z,50.90
2023-04-05T17:29:17.663Z,50.79
2023-04-05T17:30:56.736Z,51.08
2023-04-05T17:33:00.688Z,51.14
2023-04-05T17:35:45.951Z,50.99
2023-04-05T17:38:04.634Z,50.87
2023-04-05T17:40:39.479Z,50.86
2023-04-05T17:42:01.788Z,50.83
2023-04-05T17:44:28.164Z,51.11
2023-04-05T17:45:50.316Z,51.05
2023-04-05T17:47:12.741Z,51.20
2023-04-05T18:02:14.197Z,51.57
2023-04-05T18:03:53.727Z,51.75
2023-04-05T18:09:03.886Z,52.17
2023-04-05T18:13:13.548Z,52.78
2023-04-05T18:14:37.927Z,53.02
2023-04-05T18:17:10.943Z,53.36
2023-04-05T18:21:41.083Z,53.40
2023-04-05T18:23:37.137Z,53.29
2023-04-05T18:40:08.938Z,54.23
2023-04-05T18:41:33.616Z,54.55
2023-04-05T18:43:43.014Z,54.98
2023-04-05T18:49:57.853Z,55.08
2023-04-05T18:52:29.224Z,55.08
2023-04-05T18:54:01.673Z,55.18
2023-04-05T18:55:57.592Z,55.89
2023-04-05T19:03:18.982Z,55.92
2023-04-05T19:05:10.443Z,56.35
2023-04-05T19:06:43.653Z,56.44
2023-04-05T19:18:43.346Z,56.59
2023-04-05T20:05:30.522Z,59.06
2023-04-05T20:07:04.644Z,59.01
2023-04-05T20:08:31.913Z,59.18
2023-04-05T20:10:00.852Z,59.09
2023-04-05T20:34:20.751Z,59.50
2023-04-05T20:36:15.480Z,59.51
2023-04-05T20:37:38.150Z,59.69
2023-04-05T20:39:01.237Z,60.04
2023-04-05T21:52:25.455Z,62.46
2023-04-05T22:21:06.562Z,62.50
2023-04-05T22:22:32.683Z,62.60
2023-04-05T22:23:56.854Z,62.69
2023-04-05T22:28:20.398Z,63.26
2023-04-05T22:29:41.754Z,63.23
2023-04-05T22:31:06.430Z,63.29
2023-04-05T22:32:28.046Z,63.45
2023-04-05T22:33:50.495Z,63.71
2023-04-05T22:35:39.612Z,63.71
2023-04-05T22:37:05.080Z,63.57
2023-04-05T22:38:27.299Z,63.64
2023-04-05T22:40:14.645Z,63.75
2023-04-05T22:41:38.642Z,63.46
2023-04-05T22:43:01.269Z,63.59
2023-04-05T22:44:46.260Z,63.80
2023-04-05T22:47:09.322Z,63.62
2023-04-05T22:48:32.949Z,63.42
2023-04-05T22:52:18.556Z,63.53
2023-04-05T22:53:59.906Z,63.63
2023-04-05T22:55:25.160Z,63.66
2023-04-05T22:56:49.620Z,63.39
2023-04-05T22:58:37.102Z,63.74
2023-04-05T23:00:01.361Z,63.47
2023-04-05T23:01:25.454Z,63.54
2023-04-05T23:02:50.623Z,63.53
2023-04-05T23:04:15.248Z,63.68
2023-04-05T23:06:16.974Z,63.76
2023-04-05T23:08:02.539Z,63.56
2023-04-05T23:09:26.154Z,63.50
2023-04-05T23:11:46.863Z,63.52
2023-04-05T23:13:22.303Z,63.34
2023-04-05T23:15:08.968Z,63.68
2023-04-05T23:16:35.212Z,63.36
2023-04-05T23:18:22.773Z,63.45
2023-04-05T23:19:50.323Z,63.31
2023-04-05T23:21:35.976Z,63.52
2023-04-05T23:22:57.525Z,63.41
2023-04-05T23:24:20.879Z,63.42
2023-04-05T23:26:42.534Z,63.47
2023-04-05T23:30:33.897Z,63.35
2023-04-05T23:32:49.166Z,63.23
2023-04-05T23:34:18.522Z,63.37
2023-04-05T23:38:41.470Z,63.39
2023-04-05T23:40:35.676Z,63.29
2023-04-05T23:42:01.369Z,63.46
2023-04-05T23:43:25.374Z,63.55
2023-04-05T23:49:43.049Z,63.34
2023-04-05T23:51:07.187Z,63.29
2023-04-05T23:52:28.831Z,63.31
2023-04-05T23:54:20.727Z,63.58
2023-04-05T23:55:46.397Z,63.53
2023-04-05T23:57:17.320Z,63.50
2023-04-05T23:59:17.068Z,63.63
